createdAt,value
2022-09-28T00:02:16.026Z,18.03
2022-09-28T00:05:01.969Z,16.50
2022-09-28T00:07:46.858Z,15.33
2022-09-28T00:10:31.681Z,14.60
2022-09-28T00:13:16.475Z,15.20
2022-09-28T00:16:07.813Z,14.43
2022-09-28T00:18:54.179Z,16.00
2022-09-28T00:21:41.447Z,16.23
2022-09-28T00:24:27.822Z,15.97
2022-09-28T00:27:13.246Z,17.00
2022-09-28T00:29:58.940Z,16.87
2022-09-28T00:32:44.316Z,17.70
2022-09-28T00:35:29.568Z,16.90
2022-09-28T00:38:14.355Z,16.80
2022-09-28T00:40:59.977Z,18.13
2022-09-28T00:43:45.321Z,19.57
2022-09-28T00:46:35.303Z,17.30
2022-09-28T00:49:27.595Z,19.07
2022-09-28T00:52:17.804Z,16.93
2022-09-28T00:55:06.765Z,16.10
2022-09-28T00:57:56.910Z,17.17
2022-09-28T01:00:42.849Z,16.37
2022-09-28T01:03:28.397Z,17.80
2022-09-28T01:06:19.271Z,17.00
2022-09-28T01:09:08.475Z,17.70
2022-09-28T01:11:53.402Z,9.93
2022-09-28T01:14:40.608Z,5.33
2022-09-28T01:17:36.333Z,4.93
2022-09-28T01:20:29.382Z,4.17
2022-09-28T01:23:23.636Z,3.97
2022-09-28T01:26:20.582Z,3.07
2022-09-28T01:29:44.166Z,3.27
2022-09-28T01:32:34.996Z,3.70
2022-09-28T01:35:28.796Z,3.60
2022-09-28T01:38:25.214Z,3.20
2022-09-28T01:41:12.201Z,3.70
2022-09-28T01:44:00.682Z,3.63
2022-09-28T01:46:49.160Z,3.90
2022-09-28T01:49:39.142Z,3.73
2022-09-28T01:52:30.263Z,4.17
2022-09-28T01:55:49.826Z,4.80
2022-09-28T01:58:50.673Z,4.20
2022-09-28T02:01:43.632Z,4.40
2022-09-28T02:04:47.197Z,3.93
2022-09-28T02:07:38.557Z,4.00
2022-09-28T02:10:30.004Z,3.83
2022-09-28T02:13:20.766Z,4.43
2022-09-28T02:16:09.032Z,4.57
2022-09-28T02:18:54.582Z,4.40
2022-09-28T02:21:45.920Z,5.27
2022-09-28T02:24:52.906Z,5.20
2022-09-28T02:27:45.020Z,5.17
2022-09-28T02:30:31.651Z,5.93
2022-09-28T02:33:22.066Z,6.47
2022-09-28T02:36:07.517Z,5.80
2022-09-28T02:38:53.404Z,5.93
2022-09-28T02:41:59.632Z,5.93
2022-09-28T02:44:44.632Z,6.47
2022-09-28T02:47:48.998Z,6.27
2022-09-28T02:50:34.198Z,6.23
2022-09-28T02:53:34.556Z,5.60
2022-09-28T02:56:35.855Z,5.83
2022-09-28T02:59:39.106Z,6.10
2022-09-28T03:02:49.167Z,6.50
2022-09-28T03:05:46.956Z,7.00
2022-09-28T03:08:44.780Z,7.20
2022-09-28T03:11:36.140Z,8.67
2022-09-28T03:14:22.200Z,7.87
2022-09-28T03:17:07.376Z,8.37
2022-09-28T03:19:52.298Z,9.70
2022-09-28T03:22:38.045Z,10.87
2022-09-28T03:25:23.066Z,12.90
2022-09-28T03:28:08.111Z,14.43
2022-09-28T03:30:53.015Z,15.67
2022-09-28T03:33:37.757Z,20.53
2022-09-28T03:36:22.722Z,20.73
2022-09-28T03:39:08.051Z,20.23
2022-09-28T03:41:53.085Z,21.50
2022-09-28T03:44:37.972Z,21.60
2022-09-28T03:47:22.900Z,21.27
2022-09-28T03:50:08.258Z,20.57
2022-09-28T03:52:53.718Z,21.23
2022-09-28T03:55:38.579Z,22.00
2022-09-28T03:58:23.749Z,21.47
2022-09-28T04:01:16.604Z,22.20
2022-09-28T04:04:02.585Z,21.77
2022-09-28T04:06:47.830Z,23.30
2022-09-28T04:09:32.613Z,24.37
2022-09-28T04:12:17.465Z,24.90
2022-09-28T04:15:02.638Z,25.43
2022-09-28T04:17:47.798Z,26.50
2022-09-28T04:20:32.713Z,27.93
2022-09-28T04:23:17.621Z,28.83
2022-09-28T04:26:04.198Z,30.57
2022-09-28T04:28:50.470Z,29.40
2022-09-28T04:31:45.794Z,31.83
2022-09-28T04:34:35.736Z,31.70
2022-09-28T04:37:22.487Z,35.73
2022-09-28T04:40:08.169Z,34.73
2022-09-28T04:42:57.333Z,34.97
2022-09-28T04:45:42.269Z,35.17
2022-09-28T04:48:28.132Z,36.33
2022-09-28T04:51:13.113Z,35.20
2022-09-28T04:53:59.006Z,36.87
2022-09-28T04:56:44.211Z,36.80
2022-09-28T04:59:29.698Z,37.87
2022-09-28T05:02:14.785Z,37.70
2022-09-28T05:05:00.010Z,38.03
2022-09-28T05:07:44.929Z,36.50
2022-09-28T05:10:29.894Z,35.57
2022-09-28T05:13:15.578Z,36.33
2022-09-28T05:16:05.261Z,36.03
2022-09-28T05:18:55.403Z,35.80
2022-09-28T05:21:44.310Z,36.57
2022-09-28T05:24:29.357Z,36.30
2022-09-28T05:27:14.507Z,35.20
2022-09-28T05:29:59.661Z,34.23
2022-09-28T05:32:44.662Z,34.17
2022-09-28T05:35:30.444Z,35.03
2022-09-28T05:38:15.645Z,35.13
2022-09-28T05:41:05.712Z,34.23
2022-09-28T05:43:52.057Z,35.93
2022-09-28T05:46:37.065Z,33.57
2022-09-28T05:49:21.989Z,33.47
2022-09-28T05:52:06.997Z,32.73
2022-09-28T05:54:51.951Z,33.53
2022-09-28T05:57:37.353Z,32.97
2022-09-28T06:00:22.342Z,32.47
2022-09-28T06:03:11.621Z,34.93
2022-09-28T06:05:57.078Z,32.40
2022-09-28T06:08:42.509Z,32.90
2022-09-28T06:11:27.976Z,37.03
2022-09-28T06:14:13.289Z,34.10
2022-09-28T06:16:58.787Z,34.53
2022-09-28T06:19:44.260Z,34.50
2022-09-28T06:22:29.221Z,32.90
2022-09-28T06:25:14.614Z,34.93
2022-09-28T06:28:02.085Z,33.67
2022-09-28T06:30:47.361Z,31.93
2022-09-28T06:33:32.748Z,33.20
2022-09-28T06:36:18.708Z,34.20
2022-09-28T06:39:04.126Z,32.27
2022-09-28T06:41:49.086Z,31.17
2022-09-28T06:44:34.141Z,32.93
2022-09-28T06:47:18.945Z,32.43
2022-09-28T06:50:05.409Z,31.13
2022-09-28T06:52:54.532Z,31.83
2022-09-28T06:55:41.443Z,30.53
2022-09-28T06:58:26.117Z,28.50
2022-09-28T07:01:11.130Z,30.47
2022-09-28T07:03:56.379Z,30.57
2022-09-28T07:06:46.921Z,31.33
2022-09-28T07:09:33.562Z,28.70
2022-09-28T07:12:20.317Z,29.50
2022-09-28T07:15:06.626Z,29.13
2022-09-28T07:18:02.061Z,28.00
2022-09-28T07:20:54.190Z,25.93
2022-09-28T07:23:51.847Z,26.97
2022-09-28T07:26:39.101Z,26.07
2022-09-28T07:29:23.997Z,25.97
2022-09-28T07:32:09.666Z,26.07
2022-09-28T07:34:58.755Z,25.20
2022-09-28T07:37:44.199Z,24.40
2022-09-28T07:40:31.247Z,23.83
2022-09-28T07:43:18.051Z,22.23
2022-09-28T07:46:03.724Z,21.27
2022-09-28T07:48:49.183Z,22.97
2022-09-28T07:51:34.652Z,22.70
2022-09-28T07:54:20.129Z,23.43
2022-09-28T07:57:06.234Z,23.23
2022-09-28T07:59:51.237Z,23.83
2022-09-28T08:02:37.419Z,22.20
2022-09-28T08:05:22.848Z,22.73
2022-09-28T08:08:07.839Z,23.23
2022-09-28T08:10:53.163Z,22.03
2022-09-28T08:13:38.378Z,23.90
2022-09-28T08:16:24.220Z,22.17
2022-09-28T08:19:09.647Z,23.17
2022-09-28T08:21:55.311Z,21.53
2022-09-28T08:24:40.489Z,21.10
2022-09-28T08:27:25.755Z,21.60
2022-09-28T08:30:11.485Z,22.63
2022-09-28T08:32:57.272Z,21.40
2022-09-28T08:35:42.456Z,21.63
2022-09-28T08:38:29.199Z,21.87
2022-09-28T08:41:14.184Z,21.83
2022-09-28T08:44:08.173Z,20.13
2022-09-28T08:47:00.942Z,20.90
2022-09-28T08:49:48.716Z,21.10
2022-09-28T08:53:02.637Z,21.37
2022-09-28T08:55:48.302Z,20.60
2022-09-28T08:58:39.679Z,22.30
2022-09-28T09:01:28.489Z,22.70
2022-09-28T09:04:13.863Z,23.73
2022-09-28T09:07:27.185Z,22.57
2022-09-28T09:10:49.348Z,22.43
2022-09-28T09:14:04.006Z,23.80
2022-09-28T09:17:17.017Z,24.10
2022-09-28T09:20:37.245Z,21.90
2022-09-28T09:23:31.172Z,20.97
2022-09-28T09:26:25.422Z,21.37
2022-09-28T09:29:49.210Z,116.00
2022-09-28T09:32:43.684Z,21.90
2022-09-28T09:35:41.169Z,21.23
2022-09-28T09:39:03.932Z,21.13
2022-09-28T09:42:24.682Z,21.17
2022-09-28T09:45:34.336Z,21.70
2022-09-28T09:48:23.238Z,20.10
2022-09-28T09:51:22.101Z,20.10
2022-09-28T09:54:18.444Z,20.27
2022-09-28T09:57:12.982Z,20.63
2022-09-28T10:00:01.699Z,20.13
2022-09-28T10:02:49.550Z,20.47
2022-09-28T10:05:35.805Z,19.10
2022-09-28T10:08:23.604Z,20.73
2022-09-28T10:11:15.323Z,19.77
2022-09-28T10:14:00.183Z,19.83
2022-09-28T10:16:46.461Z,19.07
2022-09-28T10:19:34.725Z,18.73
2022-09-28T10:22:23.747Z,18.13
2022-09-28T10:25:10.272Z,18.17
2022-09-28T10:27:57.552Z,18.80
2022-09-28T10:30:43.136Z,17.47
2022-09-28T10:33:33.857Z,18.70
2022-09-28T10:36:19.183Z,16.13
2022-09-28T10:39:05.894Z,18.37
2022-09-28T10:41:51.571Z,19.20
2022-09-28T10:44:52.515Z,19.23
2022-09-28T10:47:38.037Z,19.70
2022-09-28T10:50:26.460Z,20.27
2022-09-28T10:53:18.590Z,18.73
2022-09-28T10:56:07.157Z,16.97
2022-09-28T10:58:52.343Z,15.97
2022-09-28T11:01:37.104Z,14.70
2022-09-28T11:04:27.730Z,15.57
2022-09-28T11:07:22.368Z,14.43
2022-09-28T11:10:21.347Z,14.83
2022-09-28T11:13:09.499Z,15.07
2022-09-28T11:15:54.340Z,14.00
2022-09-28T11:18:39.262Z,14.10
2022-09-28T11:21:30.042Z,15.33
2022-09-28T11:24:18.912Z,14.63
2022-09-28T11:27:04.664Z,14.23
2022-09-28T11:29:57.830Z,13.70
2022-09-28T11:32:45.237Z,14.07
2022-09-28T11:35:55.000Z,14.13
2022-09-28T11:39:06.821Z,14.33
2022-09-28T11:42:16.133Z,14.57
2022-09-28T11:45:23.314Z,14.00
2022-09-28T11:48:13.073Z,14.93
2022-09-28T11:51:15.416Z,14.47
2022-09-28T11:54:17.924Z,16.30
2022-09-28T11:57:06.316Z,15.23
2022-09-28T11:59:59.809Z,16.13
2022-09-28T12:02:54.680Z,15.03
2022-09-28T12:05:57.946Z,14.73
2022-09-28T12:08:48.945Z,11.87
2022-09-28T12:11:39.036Z,12.27
2022-09-28T12:14:31.056Z,12.40
2022-09-28T12:17:25.169Z,12.70
2022-09-28T12:20:16.701Z,12.30
2022-09-28T12:23:17.676Z,13.13
2022-09-28T12:26:10.725Z,12.85
2022-09-28T12:29:00.937Z,11.18
2022-09-28T12:32:02.742Z,11.40
2022-09-28T12:34:48.315Z,10.70
2022-09-28T12:37:54.689Z,10.50
2022-09-28T12:40:51.363Z,10.30
2022-09-28T12:43:58.694Z,10.23
2022-09-28T12:47:06.750Z,9.43
2022-09-28T12:50:47.506Z,10.13
2022-09-28T12:53:53.171Z,10.00
2022-09-28T12:56:49.727Z,11.48
2022-09-28T12:59:49.949Z,10.17
2022-09-28T13:02:50.193Z,10.60
2022-09-28T13:06:12.206Z,12.00
2022-09-28T13:09:20.857Z,12.77
2022-09-28T13:12:31.251Z,13.77
2022-09-28T13:15:35.763Z,12.30
2022-09-28T13:18:55.904Z,14.07
2022-09-28T13:22:02.067Z,10.53
2022-09-28T13:24:48.704Z,11.90
2022-09-28T13:27:42.032Z,11.60
2022-09-28T13:30:27.181Z,12.37
2022-09-28T13:33:23.037Z,11.33
2022-09-28T13:36:30.180Z,11.60
2022-09-28T13:39:46.251Z,11.37
2022-09-28T13:42:46.712Z,10.83
2022-09-28T13:45:51.522Z,9.73
2022-09-28T13:49:05.797Z,12.00
2022-09-28T13:51:59.897Z,10.20
2022-09-28T13:54:58.113Z,9.60
2022-09-28T13:57:49.932Z,10.10
2022-09-28T14:00:46.368Z,9.43
2022-09-28T14:04:03.274Z,9.17
2022-09-28T14:07:15.189Z,11.20
2022-09-28T14:10:34.357Z,10.10
2022-09-28T14:13:41.405Z,9.65
2022-09-28T14:16:31.261Z,9.67
2022-09-28T14:19:25.934Z,9.27
2022-09-28T14:22:17.037Z,9.73
2022-09-28T14:25:01.796Z,9.83
2022-09-28T14:27:53.459Z,9.50
2022-09-28T14:30:41.969Z,10.32
2022-09-28T14:33:32.846Z,22.52
2022-09-28T14:36:35.003Z,11.68
2022-09-28T14:39:31.067Z,9.52
2022-09-28T14:42:20.448Z,9.27
2022-09-28T14:45:07.345Z,10.43
2022-09-28T14:48:13.676Z,9.63
2022-09-28T14:51:24.849Z,9.60
2022-09-28T14:54:10.085Z,9.68
2022-09-28T14:57:14.953Z,9.90
2022-09-28T15:00:07.326Z,9.43
2022-09-28T15:02:56.075Z,10.05
2022-09-28T15:05:46.053Z,10.18
2022-09-28T15:08:39.293Z,14.80
2022-09-28T15:11:26.277Z,24.05
2022-09-28T15:14:11.459Z,10.07
2022-09-28T15:16:58.202Z,9.98
2022-09-28T15:19:58.421Z,9.90
2022-09-28T15:22:49.000Z,10.80
2022-09-28T15:25:34.375Z,11.65
2022-09-28T15:28:22.201Z,10.60
2022-09-28T15:31:16.505Z,11.32
2022-09-28T15:34:01.901Z,11.13
2022-09-28T15:36:47.512Z,11.23
2022-09-28T15:39:34.080Z,10.45
2022-09-28T15:42:20.189Z,10.35
2022-09-28T15:45:22.987Z,10.23
2022-09-28T15:48:29.352Z,10.20
2022-09-28T15:51:14.613Z,11.30
2022-09-28T15:54:14.823Z,11.13
2022-09-28T15:57:02.738Z,11.50
2022-09-28T15:59:54.392Z,10.83
2022-09-28T16:03:16.228Z,10.52
2022-09-28T16:06:06.303Z,12.27
2022-09-28T16:08:51.408Z,11.68
2022-09-28T16:11:39.586Z,10.32
2022-09-28T16:14:26.685Z,9.68
2022-09-28T16:17:24.743Z,9.68
2022-09-28T16:20:27.681Z,9.80
2022-09-28T16:23:32.348Z,10.48
2022-09-28T16:26:29.949Z,12.07
2022-09-28T16:29:35.302Z,11.90
2022-09-28T16:32:23.719Z,10.35
2022-09-28T16:35:20.661Z,11.15
2022-09-28T16:38:11.877Z,11.30
2022-09-28T16:40:57.144Z,12.02
2022-09-28T16:43:42.575Z,11.93
2022-09-28T16:46:35.304Z,12.30
2022-09-28T16:49:22.672Z,13.17
2022-09-28T16:52:14.137Z,14.17
2022-09-28T16:54:59.301Z,12.87
2022-09-28T16:57:46.837Z,13.73
2022-09-28T17:00:32.523Z,14.23
2022-09-28T17:03:18.237Z,13.73
2022-09-28T17:06:04.797Z,13.83
2022-09-28T17:08:49.908Z,14.47
2022-09-28T17:11:35.290Z,13.87
2022-09-28T17:14:20.146Z,16.63
2022-09-28T17:17:11.582Z,20.83
2022-09-28T17:20:01.400Z,18.17
2022-09-28T17:22:46.669Z,13.63
2022-09-28T17:25:31.653Z,14.63
2022-09-28T17:28:16.440Z,14.53
2022-09-28T17:31:03.980Z,16.10
2022-09-28T17:33:49.288Z,18.30
2022-09-28T17:36:34.308Z,16.47
2022-09-28T17:39:19.241Z,17.43
2022-09-28T17:42:04.456Z,17.93
2022-09-28T17:44:49.749Z,19.27
2022-09-28T17:47:34.617Z,19.67
2022-09-28T17:50:24.488Z,17.67
2022-09-28T17:53:10.189Z,18.97
2022-09-28T17:55:55.251Z,18.67
2022-09-28T17:58:41.562Z,20.63
2022-09-28T18:01:27.036Z,20.73
2022-09-28T18:04:33.331Z,20.53
2022-09-28T18:07:20.429Z,22.40
2022-09-28T18:10:07.014Z,23.67
2022-09-28T18:12:52.066Z,22.97
2022-09-28T18:15:37.085Z,22.80
2022-09-28T18:18:24.106Z,23.27
2022-09-28T18:21:11.808Z,23.73
2022-09-28T18:23:57.132Z,23.30
2022-09-28T18:26:42.099Z,112.13
2022-09-28T18:29:31.029Z,29.83
2022-09-28T18:32:18.079Z,23.37
2022-09-28T18:35:08.394Z,24.70
2022-09-28T18:37:53.634Z,24.93
2022-09-28T18:40:38.761Z,25.13
2022-09-28T18:43:24.131Z,25.63
2022-09-28T18:46:10.994Z,25.53
2022-09-28T18:48:56.172Z,26.43
2022-09-28T18:51:41.408Z,27.90
2022-09-28T18:54:26.307Z,27.20
2022-09-28T18:57:11.141Z,27.07
2022-09-28T18:59:55.979Z,25.83
2022-09-28T19:02:41.436Z,27.13
2022-09-28T19:05:26.579Z,26.27
2022-09-28T19:08:11.637Z,27.13
2022-09-28T19:11:10.532Z,28.90
2022-09-28T19:13:55.640Z,27.40
2022-09-28T19:16:40.890Z,27.23
2022-09-28T19:19:26.040Z,27.20
2022-09-28T19:22:12.308Z,26.80
2022-09-28T19:24:58.421Z,27.17
2022-09-28T19:27:43.495Z,27.60
2022-09-28T19:30:28.444Z,29.97
2022-09-28T19:33:13.562Z,29.10
2022-09-28T19:36:14.226Z,29.47
2022-09-28T19:39:00.542Z,32.23
2022-09-28T19:41:45.856Z,30.93
2022-09-28T19:44:32.905Z,32.13
2022-09-28T19:47:18.319Z,29.53
2022-09-28T19:50:03.317Z,31.07
2022-09-28T19:52:48.845Z,31.07
2022-09-28T19:55:34.000Z,32.20
2022-09-28T19:58:19.894Z,29.73
2022-09-28T20:01:06.278Z,31.33
2022-09-28T20:03:51.465Z,29.83
2022-09-28T20:06:37.663Z,30.37
2022-09-28T20:09:22.749Z,27.97
2022-09-28T20:12:08.067Z,31.20
2022-09-28T20:14:53.021Z,30.47
2022-09-28T20:17:37.768Z,31.80
2022-09-28T20:20:22.820Z,30.97
2022-09-28T20:23:11.397Z,29.67
2022-09-28T20:25:58.115Z,29.47
2022-09-28T20:28:43.482Z,30.53
2022-09-28T20:31:28.844Z,31.10
2022-09-28T20:34:14.173Z,30.47
2022-09-28T20:36:59.752Z,31.80
2022-09-28T20:39:45.286Z,28.80
2022-09-28T20:42:30.715Z,31.70
2022-09-28T20:45:16.214Z,32.40
2022-09-28T20:48:03.121Z,31.87
2022-09-28T20:50:48.347Z,31.03
2022-09-28T20:53:33.925Z,30.00
2022-09-28T20:56:28.115Z,30.80
2022-09-28T20:59:13.073Z,32.37
2022-09-28T21:01:58.083Z,32.60
2022-09-28T21:04:44.101Z,31.23
2022-09-28T21:07:29.453Z,30.43
2022-09-28T21:10:14.498Z,30.13
2022-09-28T21:12:59.634Z,31.97
2022-09-28T21:15:45.173Z,31.87
2022-09-28T21:18:30.923Z,31.20
2022-09-28T21:21:18.082Z,32.90
2022-09-28T21:24:03.640Z,32.47
2022-09-28T21:26:48.835Z,32.40
2022-09-28T21:29:33.816Z,29.37
2022-09-28T21:32:19.274Z,30.27
2022-09-28T21:35:05.051Z,30.60
2022-09-28T21:37:49.960Z,29.67
2022-09-28T21:40:35.167Z,40.10
2022-09-28T21:43:20.615Z,32.17
2022-09-28T21:46:05.752Z,30.70
2022-09-28T21:48:52.266Z,28.90
2022-09-28T21:51:37.427Z,28.33
2022-09-28T21:54:22.401Z,29.83
2022-09-28T21:57:08.005Z,28.57
2022-09-28T21:59:53.262Z,28.53
2022-09-28T22:02:38.541Z,28.80
2022-09-28T22:05:24.107Z,28.30
2022-09-28T22:08:09.784Z,28.27
2022-09-28T22:11:08.969Z,29.17
2022-09-28T22:13:59.249Z,29.80
2022-09-28T22:16:44.278Z,29.57
2022-09-28T22:19:29.149Z,29.73
2022-09-28T22:22:14.337Z,30.40
2022-09-28T22:24:59.526Z,30.07
2022-09-28T22:27:44.770Z,28.33
2022-09-28T22:30:30.762Z,28.23
2022-09-28T22:33:15.728Z,29.93
2022-09-28T22:36:01.139Z,28.07
2022-09-28T22:38:47.240Z,27.40
2022-09-28T22:41:32.854Z,29.07
2022-09-28T22:44:18.886Z,28.70
2022-09-28T22:47:04.225Z,27.60
2022-09-28T22:49:49.090Z,26.70
2022-09-28T22:52:34.314Z,26.43
2022-09-28T22:55:19.313Z,27.07
2022-09-28T22:58:04.244Z,26.83
2022-09-28T23:00:49.433Z,27.87
2022-09-28T23:03:34.492Z,27.07
2022-09-28T23:06:22.060Z,27.43
2022-09-28T23:09:07.135Z,28.03
2022-09-28T23:11:52.111Z,27.40
2022-09-28T23:14:37.009Z,29.10
2022-09-28T23:17:22.019Z,27.13
2022-09-28T23:20:07.562Z,28.03
2022-09-28T23:22:52.511Z,28.70
2022-09-28T23:25:37.306Z,29.13
2022-09-28T23:28:24.361Z,29.17
2022-09-28T23:31:12.383Z,29.33
2022-09-28T23:33:59.226Z,29.47
2022-09-28T23:36:44.432Z,29.20
2022-09-28T23:39:29.589Z,28.57
2022-09-28T23:42:14.457Z,27.83
2022-09-28T23:44:59.433Z,28.40
2022-09-28T23:47:44.324Z,27.43
2022-09-28T23:50:29.556Z,28.00
2022-09-28T23:53:15.231Z,27.67
2022-09-28T23:56:01.121Z,28.87
2022-09-28T23:58:46.406Z,26.97
